createdAt,value
2024-01-26T00:02:08.864Z,2.90
2024-01-26T00:04:36.270Z,3.03
2024-01-26T00:07:03.801Z,2.57
2024-01-26T00:09:31.208Z,3.00
2024-01-26T00:11:58.006Z,2.60
2024-01-26T00:14:24.985Z,2.43
2024-01-26T00:16:51.897Z,3.10
2024-01-26T00:19:19.087Z,2.50
2024-01-26T00:21:46.059Z,3.67
2024-01-26T00:24:13.627Z,3.67
2024-01-26T00:26:40.504Z,2.60
2024-01-26T00:29:08.003Z,2.73
2024-01-26T00:31:34.925Z,2.60
2024-01-26T00:34:01.911Z,2.80
2024-01-26T00:36:28.798Z,2.20
2024-01-26T00:38:55.818Z,2.37
2024-01-26T00:41:22.718Z,2.20
2024-01-26T00:43:49.637Z,2.40
2024-01-26T00:46:16.512Z,2.20
2024-01-26T00:48:43.387Z,3.20
2024-01-26T00:51:10.728Z,2.30
2024-01-26T00:53:37.567Z,2.17
2024-01-26T00:56:04.681Z,3.50
2024-01-26T00:58:31.605Z,3.10
2024-01-26T01:00:58.617Z,2.10
2024-01-26T01:03:25.630Z,2.63
2024-01-26T01:05:52.672Z,2.20
2024-01-26T01:08:21.490Z,2.27
2024-01-26T01:10:48.485Z,3.27
2024-01-26T01:13:16.223Z,3.20
2024-01-26T01:15:43.079Z,2.60
2024-01-26T01:18:10.488Z,2.10
2024-01-26T01:20:37.464Z,2.30
2024-01-26T01:23:04.481Z,2.70
2024-01-26T01:25:31.470Z,2.43
2024-01-26T01:27:58.380Z,2.90
2024-01-26T01:30:25.160Z,2.30
2024-01-26T01:32:52.120Z,2.90
2024-01-26T01:35:19.065Z,2.33
2024-01-26T01:37:46.031Z,2.20
2024-01-26T01:40:12.981Z,2.37
2024-01-26T01:42:40.180Z,2.93
2024-01-26T01:45:12.475Z,2.43
2024-01-26T01:47:39.559Z,2.90
2024-01-26T01:50:07.347Z,3.10
2024-01-26T01:52:35.261Z,2.73
2024-01-26T01:55:03.735Z,3.43
2024-01-26T01:57:32.849Z,2.50
2024-01-26T02:00:01.067Z,2.67
2024-01-26T02:02:30.905Z,2.47
2024-01-26T02:04:57.896Z,2.40
2024-01-26T02:07:26.356Z,3.00
2024-01-26T02:09:53.538Z,2.60
2024-01-26T02:12:20.417Z,2.20
2024-01-26T02:14:47.265Z,2.47
2024-01-26T02:17:14.149Z,2.43
2024-01-26T02:19:41.015Z,2.10
2024-01-26T02:22:07.989Z,2.00
2024-01-26T02:24:34.780Z,2.40
2024-01-26T02:27:11.876Z,2.07
2024-01-26T02:29:40.417Z,2.60
2024-01-26T02:32:07.478Z,1.60
2024-01-26T02:34:34.620Z,2.17
2024-01-26T02:37:01.847Z,2.13
2024-01-26T02:39:30.176Z,1.60
2024-01-26T02:41:57.200Z,2.07
2024-01-26T02:44:24.093Z,1.90
2024-01-26T02:46:50.931Z,2.00
2024-01-26T02:49:18.003Z,1.83
2024-01-26T02:51:44.975Z,2.03
2024-01-26T02:54:11.866Z,1.83
2024-01-26T02:56:38.824Z,1.90
2024-01-26T02:59:05.756Z,2.53
2024-01-26T03:01:32.752Z,2.40
2024-01-26T03:04:00.601Z,2.60
2024-01-26T03:06:27.487Z,2.63
2024-01-26T03:08:55.226Z,2.97
2024-01-26T03:11:22.734Z,3.30
2024-01-26T03:13:49.610Z,2.13
2024-01-26T03:16:16.782Z,2.60
2024-01-26T03:18:43.703Z,2.70
2024-01-26T03:21:10.697Z,2.27
2024-01-26T03:23:38.456Z,2.07
2024-01-26T03:26:05.904Z,2.60
2024-01-26T03:28:32.672Z,2.27
2024-01-26T03:30:59.534Z,2.20
2024-01-26T03:33:26.540Z,1.97
2024-01-26T03:35:53.469Z,1.50
2024-01-26T03:38:20.392Z,2.50
2024-01-26T03:40:47.322Z,2.23
2024-01-26T03:43:14.111Z,2.27
2024-01-26T03:45:41.128Z,2.60
2024-01-26T03:48:08.210Z,2.47
2024-01-26T03:50:35.259Z,2.23
2024-01-26T03:53:02.094Z,2.70
2024-01-26T03:55:28.896Z,2.40
2024-01-26T03:57:55.895Z,2.40
2024-01-26T04:00:22.801Z,3.23
2024-01-26T04:02:49.831Z,2.40
2024-01-26T04:05:16.850Z,1.83
2024-01-26T04:07:43.786Z,2.60
2024-01-26T04:10:10.716Z,1.80
2024-01-26T04:12:37.636Z,1.83
2024-01-26T04:15:04.677Z,1.83
2024-01-26T04:17:31.784Z,1.30
2024-01-26T04:19:58.731Z,2.10
2024-01-26T04:22:25.655Z,1.63
2024-01-26T04:24:52.439Z,1.90
2024-01-26T04:27:19.560Z,1.63
2024-01-26T04:29:46.418Z,1.83
2024-01-26T04:32:13.371Z,2.00
2024-01-26T04:34:40.563Z,2.77
2024-01-26T04:37:09.237Z,2.00
2024-01-26T04:39:36.195Z,2.50
2024-01-26T04:42:03.099Z,2.13
2024-01-26T04:44:30.097Z,2.60
2024-01-26T04:46:58.842Z,2.20
2024-01-26T04:49:25.785Z,1.80
2024-01-26T04:51:52.709Z,1.70
2024-01-26T04:54:19.670Z,2.20
2024-01-26T04:56:46.753Z,3.30
2024-01-26T04:59:13.571Z,3.10
2024-01-26T05:01:40.492Z,2.50
2024-01-26T05:04:07.686Z,1.83
2024-01-26T05:06:34.618Z,2.43
2024-01-26T05:09:01.864Z,4.20
2024-01-26T05:11:28.769Z,5.47
2024-01-26T05:13:55.573Z,3.67
2024-01-26T05:16:22.702Z,2.40
2024-01-26T05:18:49.699Z,2.07
2024-01-26T05:21:16.651Z,1.87
2024-01-26T05:23:43.716Z,2.17
2024-01-26T05:26:10.524Z,2.97
2024-01-26T05:28:37.493Z,5.47
2024-01-26T05:31:05.116Z,6.30
2024-01-26T05:33:32.097Z,5.20
2024-01-26T05:35:58.977Z,5.53
2024-01-26T05:38:25.862Z,5.33
2024-01-26T05:40:52.705Z,3.67
2024-01-26T05:43:19.490Z,2.90
2024-01-26T05:45:46.606Z,2.80
2024-01-26T05:48:13.608Z,2.40
2024-01-26T05:50:40.464Z,2.40
2024-01-26T05:53:08.719Z,2.63
2024-01-26T05:55:35.625Z,3.27
2024-01-26T05:58:02.444Z,4.20
2024-01-26T06:00:29.557Z,7.47
2024-01-26T06:02:56.510Z,6.87
2024-01-26T06:05:23.497Z,3.83
2024-01-26T06:07:50.331Z,3.40
2024-01-26T06:10:17.260Z,4.27
2024-01-26T06:12:45.438Z,3.60
2024-01-26T06:15:12.499Z,4.07
2024-01-26T06:17:40.898Z,3.67
2024-01-26T06:20:08.084Z,4.23
2024-01-26T06:22:35.053Z,5.77
2024-01-26T06:25:01.961Z,5.80
2024-01-26T06:27:28.869Z,4.07
2024-01-26T06:29:55.886Z,2.90
2024-01-26T06:32:22.782Z,4.40
2024-01-26T06:34:49.827Z,7.70
2024-01-26T06:37:16.705Z,8.07
2024-01-26T06:39:43.546Z,5.73
2024-01-26T06:42:10.434Z,13.83
2024-01-26T06:44:37.419Z,21.03
2024-01-26T06:47:04.512Z,7.03
2024-01-26T06:49:31.407Z,5.93
2024-01-26T06:51:58.184Z,3.80
2024-01-26T06:54:25.268Z,3.67
2024-01-26T06:56:52.094Z,7.70
2024-01-26T06:59:19.135Z,14.33
2024-01-26T07:01:45.951Z,11.73
2024-01-26T07:04:12.860Z,12.47
2024-01-26T07:06:39.844Z,18.77
2024-01-26T07:09:07.708Z,41.47
2024-01-26T07:11:36.183Z,29.80
2024-01-26T07:14:03.127Z,28.43
2024-01-26T07:16:29.969Z,23.00
2024-01-26T07:18:56.912Z,35.27
2024-01-26T07:21:23.953Z,9.27
2024-01-26T07:23:51.064Z,9.30
2024-01-26T07:26:21.544Z,9.93
2024-01-26T07:28:48.828Z,4.83
2024-01-26T07:31:15.681Z,4.60
2024-01-26T07:33:42.796Z,4.80
2024-01-26T07:36:09.829Z,10.20
2024-01-26T07:38:36.690Z,11.27
2024-01-26T07:41:03.617Z,9.60
2024-01-26T07:43:30.628Z,8.07
2024-01-26T07:45:57.482Z,6.70
2024-01-26T07:48:24.981Z,6.20
2024-01-26T07:50:52.064Z,8.63
2024-01-26T07:53:18.912Z,8.23
2024-01-26T07:55:45.981Z,7.90
2024-01-26T07:58:12.888Z,8.03
2024-01-26T08:00:39.810Z,7.50
2024-01-26T08:03:07.247Z,7.87
2024-01-26T08:05:34.553Z,7.27
2024-01-26T08:08:01.458Z,7.83
2024-01-26T08:10:28.426Z,8.00
2024-01-26T08:12:55.605Z,8.30
2024-01-26T08:15:22.693Z,8.17
2024-01-26T08:17:50.032Z,7.33
2024-01-26T08:20:17.238Z,6.97
2024-01-26T08:22:45.286Z,9.10
2024-01-26T08:25:13.103Z,9.03
2024-01-26T08:27:40.176Z,9.97
2024-01-26T08:30:07.616Z,8.23
2024-01-26T08:32:35.564Z,8.40
2024-01-26T08:35:02.931Z,9.23
2024-01-26T08:37:29.974Z,10.50
2024-01-26T08:39:57.511Z,9.70
2024-01-26T08:42:24.545Z,8.27
2024-01-26T08:44:51.483Z,5.17
2024-01-26T08:47:18.354Z,5.47
2024-01-26T08:49:45.362Z,4.40
2024-01-26T08:52:12.169Z,4.23
2024-01-26T08:54:39.280Z,3.70
2024-01-26T08:57:06.764Z,4.93
2024-01-26T08:59:33.724Z,5.70
2024-01-26T09:02:00.746Z,4.33
2024-01-26T09:04:28.098Z,5.03
2024-01-26T09:07:00.407Z,5.00
2024-01-26T09:09:35.147Z,4.60
2024-01-26T09:12:02.155Z,5.33
2024-01-26T09:14:29.553Z,4.83
2024-01-26T09:16:56.498Z,4.53
2024-01-26T09:19:23.582Z,4.73
2024-01-26T09:21:52.511Z,3.97
2024-01-26T09:24:19.616Z,4.03
2024-01-26T09:26:46.914Z,4.37
2024-01-26T09:29:14.136Z,4.80
2024-01-26T09:31:41.100Z,4.23
2024-01-26T09:34:08.305Z,3.80
2024-01-26T09:36:35.289Z,5.67
2024-01-26T09:39:02.187Z,5.97
2024-01-26T09:41:29.124Z,4.63
2024-01-26T09:43:56.299Z,3.60
2024-01-26T09:46:23.170Z,4.77
2024-01-26T09:48:53.730Z,4.27
2024-01-26T09:51:21.043Z,3.30
2024-01-26T09:53:48.160Z,4.50
2024-01-26T09:56:15.031Z,3.13
2024-01-26T09:58:41.954Z,4.43
2024-01-26T10:01:08.862Z,3.23
2024-01-26T10:03:36.666Z,4.23
2024-01-26T10:06:04.330Z,2.33
2024-01-26T10:08:41.103Z,2.00
2024-01-26T10:11:08.290Z,1.80
2024-01-26T10:13:35.331Z,3.63
2024-01-26T10:16:09.270Z,4.17
2024-01-26T10:18:43.917Z,3.83
2024-01-26T10:21:15.190Z,5.27
2024-01-26T10:23:42.725Z,7.47
2024-01-26T10:26:12.998Z,3.23
2024-01-26T10:28:40.140Z,2.67
2024-01-26T10:31:07.539Z,3.07
2024-01-26T10:33:35.192Z,2.70
2024-01-26T10:36:03.036Z,2.87
2024-01-26T10:38:30.571Z,3.10
2024-01-26T10:41:01.705Z,2.63
2024-01-26T10:43:29.232Z,2.63
2024-01-26T10:45:57.029Z,3.13
2024-01-26T10:48:25.453Z,3.30
2024-01-26T10:50:52.608Z,2.80
2024-01-26T10:53:20.350Z,2.57
2024-01-26T10:55:48.998Z,2.43
2024-01-26T10:58:16.055Z,3.53
2024-01-26T11:00:42.970Z,5.10
2024-01-26T11:03:10.193Z,3.37
2024-01-26T11:05:37.341Z,3.40
2024-01-26T11:08:09.099Z,3.53
2024-01-26T11:10:36.378Z,3.70
2024-01-26T11:13:04.050Z,3.90
2024-01-26T11:15:31.519Z,3.87
2024-01-26T11:17:59.068Z,2.57
2024-01-26T11:20:27.929Z,3.23
2024-01-26T11:23:01.685Z,3.10
2024-01-26T11:25:33.962Z,3.70
2024-01-26T11:28:01.405Z,3.57
2024-01-26T11:30:28.768Z,2.83
2024-01-26T11:32:55.939Z,3.97
2024-01-26T11:35:23.333Z,3.73
2024-01-26T11:37:54.814Z,4.13
2024-01-26T11:40:22.150Z,3.13
2024-01-26T11:42:51.689Z,2.33
2024-01-26T11:45:26.553Z,3.17
2024-01-26T11:47:54.396Z,3.37
2024-01-26T11:50:21.346Z,2.10
2024-01-26T11:52:49.507Z,3.90
2024-01-26T11:55:16.645Z,2.93
2024-01-26T11:57:43.839Z,3.20
2024-01-26T12:00:12.168Z,3.47
2024-01-26T12:02:39.431Z,4.03
2024-01-26T12:05:06.592Z,3.93
2024-01-26T12:07:33.819Z,3.87
2024-01-26T12:10:01.410Z,3.70
2024-01-26T12:12:28.904Z,2.73
2024-01-26T12:14:56.009Z,3.40
2024-01-26T12:17:22.937Z,3.67
2024-01-26T12:19:51.065Z,2.60
2024-01-26T12:22:18.674Z,2.47
2024-01-26T12:24:45.510Z,2.90
2024-01-26T12:27:12.635Z,2.30
2024-01-26T12:29:39.627Z,3.00
2024-01-26T12:32:07.264Z,2.93
2024-01-26T12:34:37.389Z,2.60
2024-01-26T12:37:10.135Z,2.00
2024-01-26T12:39:37.096Z,2.67
2024-01-26T12:42:03.991Z,2.50
2024-01-26T12:44:31.612Z,2.37
2024-01-26T12:46:58.905Z,2.13
2024-01-26T12:49:26.306Z,2.20
2024-01-26T12:51:57.412Z,2.57
2024-01-26T12:54:25.126Z,2.77
2024-01-26T12:56:52.108Z,2.97
2024-01-26T12:59:18.956Z,2.60
2024-01-26T13:01:45.847Z,3.27
2024-01-26T13:04:12.745Z,3.57
2024-01-26T13:06:39.735Z,3.67
2024-01-26T13:09:08.014Z,3.73
2024-01-26T13:11:35.939Z,2.87
2024-01-26T13:14:04.267Z,3.73
2024-01-26T13:16:31.070Z,3.33
2024-01-26T13:18:58.115Z,3.00
2024-01-26T13:21:25.430Z,3.67
2024-01-26T13:23:53.051Z,3.87
2024-01-26T13:26:20.464Z,3.30
2024-01-26T13:28:47.364Z,2.87
2024-01-26T13:31:14.287Z,3.13
2024-01-26T13:33:44.139Z,3.67
2024-01-26T13:36:11.216Z,4.27
2024-01-26T13:38:38.303Z,3.60
2024-01-26T13:41:05.387Z,4.07
2024-01-26T13:43:33.991Z,3.53
2024-01-26T13:46:02.186Z,3.50
2024-01-26T13:48:31.272Z,3.23
2024-01-26T13:51:01.089Z,3.47
2024-01-26T13:53:28.525Z,3.70
2024-01-26T13:55:55.520Z,3.43
2024-01-26T13:58:22.458Z,3.40
2024-01-26T14:00:49.697Z,6.17
2024-01-26T14:03:16.733Z,3.43
2024-01-26T14:05:43.910Z,5.37
2024-01-26T14:08:10.995Z,3.93
2024-01-26T14:10:38.119Z,5.27
2024-01-26T14:13:06.146Z,4.07
2024-01-26T14:15:33.047Z,4.70
2024-01-26T14:18:00.011Z,4.40
2024-01-26T14:20:26.931Z,3.60
2024-01-26T14:22:53.718Z,4.20
2024-01-26T14:25:22.412Z,4.07
2024-01-26T14:27:51.329Z,3.87
2024-01-26T14:30:18.959Z,3.90
2024-01-26T14:32:45.951Z,3.97
2024-01-26T14:35:13.927Z,4.43
2024-01-26T14:37:42.066Z,3.63
2024-01-26T14:40:18.868Z,4.30
2024-01-26T14:42:46.810Z,3.90
2024-01-26T14:45:14.114Z,3.80
2024-01-26T14:47:41.696Z,3.30
2024-01-26T14:50:11.025Z,3.43
2024-01-26T14:52:39.933Z,3.53
2024-01-26T14:55:10.563Z,2.80
2024-01-26T14:57:39.640Z,3.63
2024-01-26T15:00:10.026Z,3.20
2024-01-26T15:02:37.606Z,2.77
2024-01-26T15:05:04.855Z,3.33
2024-01-26T15:07:36.178Z,3.13
2024-01-26T15:10:05.650Z,3.73
2024-01-26T15:12:32.600Z,3.97
2024-01-26T15:14:59.525Z,3.40
2024-01-26T15:17:26.624Z,3.53
2024-01-26T15:19:53.980Z,2.47
2024-01-26T15:22:21.002Z,3.27
2024-01-26T15:24:48.011Z,3.73
2024-01-26T15:27:14.943Z,4.10
2024-01-26T15:29:41.893Z,4.10
2024-01-26T15:32:09.468Z,4.80
2024-01-26T15:34:37.043Z,4.13
2024-01-26T15:37:05.011Z,4.40
2024-01-26T15:39:31.932Z,4.93
2024-01-26T15:41:58.783Z,3.93
2024-01-26T15:44:25.713Z,4.90
2024-01-26T15:46:52.634Z,4.20
2024-01-26T15:49:20.827Z,4.57
2024-01-26T15:51:47.708Z,5.00
2024-01-26T15:54:14.685Z,3.83
2024-01-26T15:56:41.500Z,4.73
2024-01-26T15:59:08.445Z,5.00
2024-01-26T16:01:35.348Z,3.70
2024-01-26T16:04:02.283Z,5.43
2024-01-26T16:06:29.285Z,4.70
2024-01-26T16:08:56.176Z,4.70
2024-01-26T16:11:23.262Z,5.97
2024-01-26T16:13:50.160Z,5.00
2024-01-26T16:16:17.543Z,4.20
2024-01-26T16:18:46.057Z,5.20
2024-01-26T16:21:13.442Z,5.77
2024-01-26T16:23:40.338Z,5.57
2024-01-26T16:26:07.774Z,7.23
2024-01-26T16:28:37.519Z,5.67
2024-01-26T16:31:04.443Z,4.97
2024-01-26T16:33:31.337Z,6.30
2024-01-26T16:35:58.263Z,6.77
2024-01-26T16:38:25.129Z,7.20
2024-01-26T16:40:52.236Z,6.97
2024-01-26T16:43:19.187Z,5.47
2024-01-26T16:45:46.295Z,7.33
2024-01-26T16:48:13.698Z,7.07
2024-01-26T16:50:40.605Z,6.40
2024-01-26T16:53:07.870Z,7.87
2024-01-26T16:55:34.843Z,6.43
2024-01-26T16:58:01.864Z,6.77
2024-01-26T17:00:28.785Z,5.93
2024-01-26T17:02:58.769Z,8.03
2024-01-26T17:05:26.006Z,8.00
2024-01-26T17:07:52.903Z,8.00
2024-01-26T17:10:20.832Z,7.57
2024-01-26T17:12:48.967Z,8.27
2024-01-26T17:15:15.803Z,9.17
2024-01-26T17:17:42.983Z,9.13
2024-01-26T17:20:10.146Z,8.07
2024-01-26T17:22:40.051Z,9.63
2024-01-26T17:25:07.542Z,9.00
2024-01-26T17:27:34.782Z,9.40
2024-01-26T17:30:02.862Z,10.60
2024-01-26T17:32:31.112Z,11.60
2024-01-26T17:34:58.494Z,11.77
2024-01-26T17:37:25.533Z,10.33
2024-01-26T17:39:59.844Z,9.87
2024-01-26T17:42:31.829Z,9.83
2024-01-26T17:44:59.111Z,11.27
2024-01-26T17:47:26.160Z,10.67
2024-01-26T17:49:53.277Z,10.07
2024-01-26T17:52:20.423Z,10.40
2024-01-26T17:54:47.398Z,10.80
2024-01-26T17:57:14.319Z,9.93
2024-01-26T17:59:44.938Z,10.13
2024-01-26T18:02:12.116Z,10.00
2024-01-26T18:04:39.427Z,9.97
2024-01-26T18:07:06.340Z,9.60
2024-01-26T18:09:33.647Z,10.10
2024-01-26T18:12:00.686Z,10.10
2024-01-26T18:14:27.529Z,8.80
2024-01-26T18:16:54.409Z,8.93
2024-01-26T18:19:21.472Z,9.63
2024-01-26T18:21:48.510Z,10.20
2024-01-26T18:24:15.386Z,8.83
2024-01-26T18:26:42.903Z,7.60
2024-01-26T18:29:09.859Z,8.07
2024-01-26T18:31:36.796Z,8.13
2024-01-26T18:34:05.694Z,8.17
2024-01-26T18:36:33.387Z,8.43
2024-01-26T18:39:00.363Z,7.83
2024-01-26T18:41:28.070Z,8.17
2024-01-26T18:43:57.561Z,8.07
2024-01-26T18:46:25.175Z,8.73
2024-01-26T18:48:52.457Z,8.53
2024-01-26T18:51:19.522Z,7.93
2024-01-26T18:53:46.444Z,8.60
2024-01-26T18:56:13.507Z,7.57
2024-01-26T18:58:41.508Z,9.53
2024-01-26T19:01:09.778Z,7.47
2024-01-26T19:03:39.750Z,9.60
2024-01-26T19:06:07.036Z,11.03
2024-01-26T19:08:33.916Z,11.50
2024-01-26T19:11:00.878Z,12.20
2024-01-26T19:13:27.730Z,8.80
2024-01-26T19:15:55.396Z,12.90
2024-01-26T19:18:26.047Z,10.77
2024-01-26T19:20:54.244Z,10.33
2024-01-26T19:23:21.341Z,9.23
2024-01-26T19:25:48.762Z,10.10
2024-01-26T19:28:15.733Z,9.87
2024-01-26T19:30:42.680Z,8.60
2024-01-26T19:33:09.841Z,10.00
2024-01-26T19:35:37.637Z,11.13
2024-01-26T19:38:04.977Z,11.47
2024-01-26T19:40:32.055Z,9.97
2024-01-26T19:43:00.394Z,10.97
2024-01-26T19:45:27.608Z,9.17
2024-01-26T19:47:55.148Z,10.40
2024-01-26T19:50:22.063Z,10.77
2024-01-26T19:52:50.071Z,11.37
2024-01-26T19:55:17.255Z,13.63
2024-01-26T19:57:44.115Z,11.83
2024-01-26T20:00:11.458Z,11.87
2024-01-26T20:02:38.474Z,13.13
2024-01-26T20:05:06.039Z,11.73
2024-01-26T20:07:33.554Z,10.70
2024-01-26T20:10:00.656Z,10.27
2024-01-26T20:12:28.245Z,9.60
2024-01-26T20:14:56.098Z,10.47
2024-01-26T20:17:26.152Z,9.67
2024-01-26T20:19:53.177Z,10.37
2024-01-26T20:22:20.165Z,10.53
2024-01-26T20:24:47.155Z,10.33
2024-01-26T20:27:14.397Z,10.90
2024-01-26T20:29:41.397Z,11.27
2024-01-26T20:32:08.696Z,9.37
2024-01-26T20:34:35.881Z,9.97
2024-01-26T20:37:04.050Z,7.67
2024-01-26T20:39:30.973Z,9.80
2024-01-26T20:42:00.937Z,9.27
2024-01-26T20:44:29.933Z,8.73
2024-01-26T20:46:56.914Z,9.73
2024-01-26T20:49:24.100Z,10.43
2024-01-26T20:51:51.802Z,14.17
2024-01-26T20:54:20.563Z,13.10
2024-01-26T20:56:47.826Z,16.83
2024-01-26T20:59:15.200Z,9.77
2024-01-26T21:01:42.413Z,6.23
2024-01-26T21:04:09.437Z,3.47
2024-01-26T21:06:36.639Z,3.30
2024-01-26T21:09:03.724Z,3.23
2024-01-26T21:11:30.741Z,3.10
2024-01-26T21:13:58.257Z,3.87
2024-01-26T21:16:26.903Z,4.13
2024-01-26T21:18:54.227Z,3.17
2024-01-26T21:21:21.365Z,3.17
2024-01-26T21:23:48.256Z,3.13
2024-01-26T21:26:15.212Z,3.17
2024-01-26T21:28:42.054Z,3.07
2024-01-26T21:31:09.256Z,2.70
2024-01-26T21:33:36.242Z,1.70
2024-01-26T21:36:03.778Z,2.80
2024-01-26T21:38:30.970Z,2.80
2024-01-26T21:40:58.263Z,2.43
2024-01-26T21:43:25.335Z,2.40
2024-01-26T21:45:53.800Z,1.50
2024-01-26T21:48:24.845Z,2.13
2024-01-26T21:50:52.570Z,1.83
2024-01-26T21:53:21.329Z,1.53
2024-01-26T21:55:48.106Z,1.27
2024-01-26T21:58:15.144Z,1.40
2024-01-26T22:00:42.172Z,1.30
2024-01-26T22:03:09.119Z,1.23
2024-01-26T22:05:39.102Z,1.23
2024-01-26T22:08:08.491Z,1.10
2024-01-26T22:10:35.427Z,1.07
2024-01-26T22:13:03.450Z,1.03
2024-01-26T22:15:30.471Z,1.13
2024-01-26T22:17:57.554Z,0.87
2024-01-26T22:20:24.932Z,0.90
2024-01-26T22:22:51.775Z,0.90
2024-01-26T22:25:18.594Z,0.70
2024-01-26T22:27:45.614Z,1.17
2024-01-26T22:30:12.782Z,1.00
2024-01-26T22:32:39.700Z,1.00
2024-01-26T22:35:06.727Z,0.90
2024-01-26T22:37:33.884Z,1.00
2024-01-26T22:40:00.809Z,1.00
2024-01-26T22:42:30.526Z,1.23
2024-01-26T22:44:57.575Z,1.00
2024-01-26T22:47:24.407Z,1.23
2024-01-26T22:49:52.173Z,1.03
2024-01-26T22:54:46.216Z,1.47
2024-01-26T22:57:13.216Z,1.10
2024-01-26T22:59:40.378Z,1.10
2024-01-26T23:02:07.243Z,0.90
2024-01-26T23:04:34.137Z,0.90
2024-01-26T23:07:01.040Z,1.40
2024-01-26T23:09:28.121Z,1.23
2024-01-26T23:11:54.970Z,1.13
2024-01-26T23:14:22.266Z,1.23
2024-01-26T23:16:49.090Z,1.73
2024-01-26T23:19:19.792Z,0.83
2024-01-26T23:21:46.852Z,1.40
2024-01-26T23:24:13.941Z,1.53
2024-01-26T23:26:40.810Z,1.33
2024-01-26T23:29:07.685Z,1.27
2024-01-26T23:31:34.492Z,1.10
2024-01-26T23:34:01.677Z,1.60
2024-01-26T23:36:29.384Z,1.23
2024-01-26T23:38:56.676Z,1.03
2024-01-26T23:41:23.881Z,1.80
2024-01-26T23:43:50.806Z,1.50
2024-01-26T23:46:17.975Z,1.60
2024-01-26T23:48:45.031Z,1.13
2024-01-26T23:51:12.263Z,1.10
2024-01-26T23:53:39.603Z,0.93
2024-01-26T23:56:06.545Z,1.30
2024-01-26T23:58:33.344Z,1.30
